Pagrindinis puslapis
METAR-TAF:

METAR-TAF

Oro uostai :

Barbasena, Minas Žeraisas, Brazilija

platuma: 21-15S, ilguma: 043-46W, Aukštis: 1171 m

Dabartinis oras

Ataskaita buvo paskelbta 1 valandą ir 22 minutes, ne 17:00 UTC
Vėjas 5 kt iš Šiaurės Rytų, svyruoja nuo Šiaurės Vakarų ir Rytų
Temperatūra 26°C
Drėgmė 61%
Slėgis 1020 hPa
Matomumas 10 km arba daugiau
Su prošvaistėmis ne aukštis 2000 ft
Mažai debesys ne aukštis 2500 ft, aukštai iškilę kamuoliniai debesys.
Išsisklaidę debesys ne aukštis 9000 ft

METAR: SBBQ 171700Z 04005KT 320V090 9999 BKN020 FEW025TCU SCT090 26/18 Q1020

Laikas: 15:22 (18:22 UTC)


TAF: trūkstamas

Orai ataskaitas ir orų prognozės (METAR, TAF).

turimą stotys yra geltonos ir raudonos taškus žemėlapyje.

Perkelti pele per norėdami pamatyti stoties vardą.

Tada spustelėkite, norėdami matyti oro stebėjimo ir prognozės.

Norėdami pakeisti žemėlapį: spustelėkite ant žalios mygtukų su juodo kryžiaus žemyn,; žalią mygtuką su brūkšneliu, jei norite nutolinti; arba žalių rodyklių gretimoms žemėlapius.


METAR-TAF: